Time;durP1;ratioP1;P1;durP2;ratioP2;P2;SDS_P1;SDS_P2;PMS_P1;PMS_P2;Temp;Humidity;BMP_temperature;BMP_pressure;BME280_temperature;BME280_humidity;BME280_pressure;Samples;Min_cycle;Max_cycle;Signal;HPM_P1;HPM_P2
2022/08/03 00:01:27;;;;;;;13.27;4.53;;;17.60;95.30;;;;;;5051079;28;20461;-28
2022/08/03 00:03:53;;;;;;;15.48;3.95;;;17.50;50.20;;;;;;5044619;28;20048;-28
2022/08/03 00:06:19;;;;;;;12.82;4.95;;;17.50;4.20;;;;;;5046343;28;20045;-28
2022/08/03 00:08:44;;;;;;;10.05;4.15;;;17.50;49.40;;;;;;5053273;28;20083;-28
2022/08/03 00:11:10;;;;;;;11.15;5.15;;;17.50;56.00;;;;;;5052189;28;20127;-28
2022/08/03 00:13:36;;;;;;;15.88;4.97;;;17.50;99.90;;;;;;5051986;28;20056;-28
2022/08/03 00:16:02;;;;;;;13.77;4.88;;;17.60;99.90;;;;;;5054661;28;20045;-28
2022/08/03 00:18:28;;;;;;;10.55;4.78;;;17.50;99.90;;;;;;5055165;28;20088;-28
2022/08/03 00:20:53;;;;;;;11.52;4.65;;;17.50;99.90;;;;;;5054823;28;20067;-28
2022/08/03 00:23:19;;;;;;;10.07;4.55;;;17.50;99.90;;;;;;5056908;28;20056;-28
2022/08/03 00:25:45;;;;;;;11.82;4.68;;;17.50;99.90;;;;;;5056395;28;20037;-27
2022/08/03 00:28:10;;;;;;;13.95;5.50;;;17.50;99.90;;;;;;5056718;28;20045;-27
2022/08/03 00:30:36;;;;;;;8.88;5.13;;;17.50;99.90;;;;;;5055814;28;20127;-28
2022/08/03 00:33:02;;;;;;;14.98;4.80;;;17.50;99.90;;;;;;5056846;28;20048;-28
2022/08/03 00:35:29;;;;;;;11.48;5.63;;;17.60;99.90;;;;;;5056795;28;20063;-28
2022/08/03 00:37:54;;;;;;;12.70;5.20;;;17.50;99.90;;;;;;5057325;28;20379;-28
2022/08/03 00:40:21;;;;;;;9.10;5.00;;;17.50;99.90;;;;;;5038889;28;20094;-27
2022/08/03 00:42:52;;;;;;;11.60;5.32;;;17.50;99.90;;;;;;5055903;28;20110;-28
2022/08/03 00:45:24;;;;;;;11.57;4.90;;;17.50;99.90;;;;;;5056903;28;20501;-28
2022/08/03 00:47:50;;;;;;;9.35;4.63;;;17.50;99.90;;;;;;5057097;28;20394;-28
2022/08/03 00:50:16;;;;;;;11.13;4.15;;;17.50;99.90;;;;;;5056500;28;20127;-28
2022/08/03 00:52:43;;;;;;;11.88;5.25;;;17.50;99.90;;;;;;5056498;28;20087;-28
2022/08/03 00:55:10;;;;;;;8.07;4.32;;;17.60;99.90;;;;;;5055679;28;20139;-28
2022/08/03 00:57:36;;;;;;;12.98;6.38;;;17.50;99.90;;;;;;5055581;28;20101;-28
2022/08/03 01:00:02;;;;;;;14.32;4.30;;;17.50;99.90;;;;;;5055575;28;20045;-27
2022/08/03 01:02:28;;;;;;;9.75;4.18;;;17.50;99.90;;;;;;5054066;28;20070;-28
2022/08/03 01:04:55;;;;;;;12.00;4.45;;;17.50;99.90;;;;;;5054444;28;20041;-28
2022/08/03 01:07:35;;;;;;;13.20;3.88;;;17.50;99.90;;;;;;5054288;28;20044;-28
2022/08/03 01:10:38;;;;;;;10.27;4.90;;;17.40;99.90;;;;;;5039400;28;20044;-28
2022/08/03 01:13:18;;;;;;;8.90;4.30;;;17.40;99.90;;;;;;5055658;28;20556;-28
2022/08/03 01:16:13;;;;;;;8.38;3.85;;;17.40;99.90;;;;;;5054552;28;20049;-28
2022/08/03 01:18:42;;;;;;;11.38;4.43;;;17.30;99.90;;;;;;5052823;28;20057;-28
2022/08/03 01:21:41;;;;;;;9.80;4.60;;;17.30;99.90;;;;;;5055898;28;20048;-28
2022/08/03 01:24:35;;;;;;;9.80;3.75;;;17.30;99.90;;;;;;5051164;28;20060;-28
2022/08/03 01:27:18;;;;;;;14.25;3.90;;;17.30;99.90;;;;;;5070338;28;20040;-28
2022/08/03 01:30:07;;;;;;;9.40;3.60;;;17.20;99.90;;;;;;5054865;28;20127;-28
2022/08/03 01:32:39;;;;;;;11.07;4.18;;;17.30;99.90;;;;;;5022103;28;20132;-27
2022/08/03 01:35:13;;;;;;;15.93;4.88;;;17.30;99.90;;;;;;5039984;28;20403;-28
2022/08/03 01:37:48;;;;;;;6.97;3.72;;;17.40;99.90;;;;;;5054121;28;20449;-28
2022/08/03 01:40:16;;;;;;;13.02;3.97;;;17.40;99.90;;;;;;5054578;28;20498;-28
2022/08/03 01:42:44;;;;;;;9.18;3.95;;;17.40;99.90;;;;;;5055538;28;20045;-28
2022/08/03 01:45:12;;;;;;;11.77;3.67;;;17.50;99.90;;;;;;5054847;28;20045;-28
2022/08/03 01:47:39;;;;;;;8.85;2.90;;;17.50;99.90;;;;;;5051920;28;20056;-28
2022/08/03 01:50:08;;;;;;;10.70;3.53;;;17.50;99.90;;;;;;5054202;28;20040;-28
2022/08/03 01:52:36;;;;;;;7.07;2.83;;;17.50;99.90;;;;;;5054931;28;20375;-28
2022/08/03 01:55:04;;;;;;;14.25;3.28;;;17.40;99.90;;;;;;5053184;28;20467;-28
2022/08/03 01:57:30;;;;;;;9.23;3.13;;;17.40;99.90;;;;;;5048438;28;20119;-29
2022/08/03 01:59:58;;;;;;;10.25;3.15;;;17.40;99.90;;;;;;5054435;28;20411;-28
2022/08/03 02:02:25;;;;;;;10.77;3.33;;;17.30;99.90;;;;;;5053056;28;20503;-28
2022/08/03 02:04:54;;;;;;;10.45;3.33;;;17.30;98.60;;;;;;5052619;28;20044;-28
2022/08/03 02:07:20;;;;;;;7.50;3.08;;;17.30;98.30;;;;;;5053918;28;20041;-28
2022/08/03 02:09:49;;;;;;;12.40;3.50;;;17.30;99.90;;;;;;5053262;28;20049;-28
2022/08/03 02:12:16;;;;;;;14.07;3.47;;;17.30;99.90;;;;;;5053410;28;20060;-29
2022/08/03 02:14:44;;;;;;;9.10;3.75;;;17.20;99.90;;;;;;5053286;28;20105;-28
2022/08/03 02:17:13;;;;;;;11.93;3.30;;;17.20;95.80;;;;;;5054853;28;20051;-28
2022/08/03 02:19:41;;;;;;;8.27;3.45;;;17.10;98.00;;;;;;5053702;28;20124;-28
2022/08/03 02:22:10;;;;;;;9.65;4.00;;;17.10;99.90;;;;;;5053996;28;20115;-28
2022/08/03 02:24:36;;;;;;;12.77;3.42;;;17.10;99.90;;;;;;5054098;28;20559;-29
2022/08/03 02:27:06;;;;;;;9.70;3.75;;;17.00;99.90;;;;;;5053589;28;20041;-28
2022/08/03 02:29:34;;;;;;;10.35;3.83;;;17.00;99.90;;;;;;5054619;28;20136;-28
2022/08/03 02:32:03;;;;;;;11.40;4.00;;;17.00;99.90;;;;;;5053460;28;20044;-28
2022/08/03 02:34:32;;;;;;;13.98;3.60;;;17.00;99.90;;;;;;5052563;28;20045;-28
2022/08/03 02:37:02;;;;;;;9.13;4.10;;;17.00;99.90;;;;;;5054252;28;20519;-28
2022/08/03 02:39:32;;;;;;;7.97;3.45;;;16.90;99.90;;;;;;5053010;28;20506;-28
2022/08/03 02:42:04;;;;;;;11.93;3.88;;;16.90;99.90;;;;;;5054379;28;20096;-28
2022/08/03 02:44:32;;;;;;;12.93;4.65;;;16.90;99.90;;;;;;5051718;28;20044;-27
2022/08/03 02:47:03;;;;;;;8.13;3.03;;;16.90;99.90;;;;;;5054216;28;20486;-28
2022/08/03 02:49:30;;;;;;;11.13;3.67;;;16.90;99.90;;;;;;5068557;28;20406;-28
2022/08/03 02:51:57;;;;;;;9.38;3.03;;;16.90;99.90;;;;;;5052418;28;20099;-28
2022/08/03 02:54:25;;;;;;;10.82;3.88;;;17.00;99.90;;;;;;5053070;28;20379;-28
2022/08/03 02:56:53;;;;;;;7.82;3.42;;;16.90;99.90;;;;;;5053142;28;20439;-29
2022/08/03 02:59:20;;;;;;;22.05;4.00;;;16.90;99.90;;;;;;5054110;28;20489;-28
2022/08/03 03:01:46;;;;;;;10.85;3.10;;;17.00;99.90;;;;;;5054081;28;20059;-28
2022/08/03 03:04:13;;;;;;;15.23;3.47;;;17.00;99.90;;;;;;5050396;28;20041;-28
2022/08/03 03:06:39;;;;;;;8.55;2.88;;;17.00;99.90;;;;;;5052222;28;20107;-28
2022/08/03 03:09:07;;;;;;;8.27;2.88;;;17.00;99.90;;;;;;5054547;28;20045;-28
2022/08/03 03:11:36;;;;;;;9.50;3.47;;;17.00;99.90;;;;;;5051324;28;20132;-28
2022/08/03 03:14:03;;;;;;;7.95;3.40;;;17.00;99.90;;;;;;5052019;28;20483;-27
2022/08/03 03:16:30;;;;;;;7.47;3.28;;;17.00;99.90;;;;;;5052727;28;20383;-28
2022/08/03 03:18:57;;;;;;;10.73;3.33;;;17.00;99.90;;;;;;5053830;28;20049;-28
2022/08/03 03:21:24;;;;;;;12.60;4.03;;;16.90;99.90;;;;;;5052133;28;20087;-28
2022/08/03 03:23:50;;;;;;;8.38;3.58;;;16.90;99.90;;;;;;5052645;28;20456;-28
2022/08/03 03:26:16;;;;;;;12.98;2.92;;;16.90;99.90;;;;;;5052524;28;20106;-28
2022/08/03 03:28:43;;;;;;;10.93;3.78;;;16.90;99.90;;;;;;5053564;28;20045;-28
2022/08/03 03:31:09;;;;;;;9.55;3.33;;;16.80;99.90;;;;;;5051915;28;20095;-28
2022/08/03 03:33:36;;;;;;;11.05;3.90;;;16.80;99.90;;;;;;5053497;28;20048;-28
2022/08/03 03:36:03;;;;;;;11.57;3.25;;;16.80;99.90;;;;;;5050555;28;20056;-28
2022/08/03 03:38:31;;;;;;;15.70;3.83;;;16.80;99.90;;;;;;5052820;28;20110;-28
2022/08/03 03:40:56;;;;;;;9.73;4.07;;;16.80;99.90;;;;;;5051957;28;20056;-28
2022/08/03 03:43:23;;;;;;;13.93;4.18;;;16.80;99.90;;;;;;5050894;28;20041;-28
2022/08/03 03:45:51;;;;;;;8.57;2.85;;;16.90;99.90;;;;;;5053570;28;20057;-30
2022/08/03 03:48:17;;;;;;;13.73;4.53;;;16.90;99.90;;;;;;5052940;28;20155;-28
2022/08/03 03:50:44;;;;;;;11.00;4.40;;;16.90;99.90;;;;;;5056394;28;20091;-28
2022/08/03 03:53:11;;;;;;;8.48;2.88;;;16.90;99.90;;;;;;5056841;28;20040;-28
2022/08/03 03:55:37;;;;;;;11.75;3.40;;;17.00;99.90;;;;;;5056591;28;20131;-28
2022/08/03 03:58:04;;;;;;;7.43;3.22;;;17.10;99.90;;;;;;5056318;28;20037;-28
2022/08/03 04:00:29;;;;;;;10.38;3.70;;;17.00;99.90;;;;;;5058037;28;20118;-29
2022/08/03 04:02:56;;;;;;;9.65;3.40;;;17.00;99.90;;;;;;5057988;28;20451;-28
2022/08/03 04:11:21;;;;;;;10.90;4.45;;;17.00;99.90;;;;;;5056079;28;20564;-28
2022/08/03 04:14:34;;;;;;;10.50;3.17;;;17.00;99.90;;;;;;5051303;28;20132;-29
2022/08/03 04:17:06;;;;;;;10.10;3.65;;;17.00;99.90;;;;;;5015124;28;20041;-28
2022/08/03 04:19:41;;;;;;;15.43;4.43;;;17.00;99.90;;;;;;5048254;28;20118;-29
2022/08/03 04:22:12;;;;;;;11.13;3.92;;;17.00;99.90;;;;;;5035959;28;20053;-30
2022/08/03 04:24:43;;;;;;;11.57;3.17;;;17.00;99.90;;;;;;5041686;28;20045;-28
2022/08/03 04:27:12;;;;;;;11.85;3.95;;;17.10;99.90;;;;;;5056965;28;20048;-28
2022/08/03 04:29:42;;;;;;;8.80;3.88;;;17.10;99.90;;;;;;5055657;28;20113;-28
2022/08/03 04:32:09;;;;;;;12.63;3.55;;;17.20;99.90;;;;;;5057465;28;20089;-28
2022/08/03 04:34:35;;;;;;;7.47;2.75;;;17.20;99.90;;;;;;5054891;28;20056;-28
2022/08/03 04:37:04;;;;;;;14.30;4.38;;;17.30;99.90;;;;;;5055776;28;20390;-28
2022/08/03 04:39:32;;;;;;;13.57;4.32;;;17.30;99.90;;;;;;5054832;28;20044;-28
2022/08/03 04:42:01;;;;;;;13.63;4.38;;;17.40;99.90;;;;;;5056975;28;20115;-28
2022/08/03 04:44:29;;;;;;;14.52;3.40;;;17.40;99.90;;;;;;5054797;28;20057;-29
2022/08/03 04:46:56;;;;;;;10.60;3.65;;;17.50;99.90;;;;;;5048470;28;20119;-28
2022/08/03 04:49:23;;;;;;;9.30;3.20;;;17.50;99.90;;;;;;5057409;28;20045;-27
2022/08/03 04:51:49;;;;;;;8.77;3.63;;;17.60;99.90;;;;;;5054814;28;20045;-28
2022/08/03 04:54:15;;;;;;;9.00;3.67;;;17.60;99.90;;;;;;5055880;28;20044;-29
2022/08/03 04:56:42;;;;;;;11.48;3.30;;;17.70;99.90;;;;;;5055742;28;20443;-28
2022/08/03 04:59:08;;;;;;;12.95;3.63;;;17.70;99.90;;;;;;5056683;28;20064;-28
2022/08/03 05:01:34;;;;;;;11.82;4.18;;;17.80;99.90;;;;;;5054116;28;20044;-28
2022/08/03 05:04:00;;;;;;;9.32;3.13;;;17.90;99.90;;;;;;5055686;28;20491;-28
2022/08/03 05:06:25;;;;;;;7.70;3.10;;;17.80;99.90;;;;;;5054500;28;20494;-28
2022/08/03 05:08:51;;;;;;;15.07;3.45;;;17.90;99.90;;;;;;5056762;28;20045;-28
2022/08/03 05:11:17;;;;;;;10.75;3.35;;;18.00;99.90;;;;;;5053995;28;20053;-28
2022/08/03 05:13:44;;;;;;;14.80;3.80;;;18.10;99.90;;;;;;5053235;28;20487;-28
2022/08/03 05:16:12;;;;;;;25.55;5.25;;;18.10;99.90;;;;;;5053918;28;20490;-28
2022/08/03 05:18:39;;;;;;;12.05;4.30;;;18.10;99.90;;;;;;5056541;28;20057;-28
2022/08/03 05:21:04;;;;;;;19.00;3.78;;;18.20;99.90;;;;;;5056783;28;20045;-28
2022/08/03 05:23:30;;;;;;;15.88;3.60;;;18.20;99.90;;;;;;5053829;28;20482;-28
2022/08/03 05:25:56;;;;;;;11.77;3.65;;;18.30;99.90;;;;;;5054224;28;20387;-28
2022/08/03 05:28:22;;;;;;;11.18;3.40;;;18.30;99.90;;;;;;5055183;28;20044;-28
2022/08/03 05:30:47;;;;;;;15.32;3.53;;;18.40;99.90;;;;;;5053694;28;20048;-28
2022/08/03 05:33:13;;;;;;;7.50;2.78;;;18.40;99.90;;;;;;5053901;28;20087;-28
2022/08/03 05:35:40;;;;;;;13.02;3.47;;;18.50;91.40;;;;;;5054509;28;20060;-28
2022/08/03 05:38:06;;;;;;;10.70;2.90;;;18.50;71.90;;;;;;5055648;28;20045;-28
2022/08/03 05:40:31;;;;;;;13.30;4.57;;;18.60;44.20;;;;;;5054620;28;20499;-28
2022/08/03 05:42:57;;;;;;;7.43;2.92;;;18.60;27.20;;;;;;5054014;28;20052;-28
2022/08/03 05:45:24;;;;;;;8.02;3.70;;;18.70;14.10;;;;;;5054344;28;20395;-28
2022/08/03 05:47:50;;;;;;;7.45;2.70;;;19.10;52.60;;;;;;5052447;28;20037;-28
2022/08/03 05:50:17;;;;;;;9.93;2.70;;;19.90;13.20;;;;;;5053593;28;20060;-28
2022/08/03 05:52:43;;;;;;;16.05;3.58;;;20.40;99.90;;;;;;5054265;28;20410;-28
2022/08/03 05:55:09;;;;;;;7.90;2.40;;;20.80;36.70;;;;;;5054222;28;20132;-28
2022/08/03 05:57:36;;;;;;;8.55;2.65;;;21.10;99.90;;;;;;5054882;28;20068;-28
2022/08/03 06:00:11;;;;;;;10.30;3.05;;;21.30;99.90;;;;;;5055263;28;20150;-28
2022/08/03 06:02:37;;;;;;;10.15;3.05;;;21.50;99.90;;;;;;5055273;28;20454;-28
2022/08/03 06:05:03;;;;;;;7.00;2.90;;;21.70;1.00;;;;;;5052984;28;20052;-28
2022/08/03 06:07:29;;;;;;;10.35;2.65;;;21.80;99.90;;;;;;5055040;28;20124;-29
2022/08/03 06:09:55;;;;;;;11.65;3.15;;;21.70;99.90;;;;;;5054381;28;20467;-28
2022/08/03 06:12:21;;;;;;;9.40;2.95;;;21.80;99.90;;;;;;5053809;28;20136;-28
2022/08/03 06:14:46;;;;;;;12.27;2.80;;;22.00;99.90;;;;;;5054438;28;20123;-28
2022/08/03 06:17:12;;;;;;;11.63;2.80;;;21.90;99.90;;;;;;5053283;28;20120;-28
2022/08/03 06:19:38;;;;;;;11.00;3.25;;;21.90;99.90;;;;;;5053478;28;20044;-28
2022/08/03 06:22:03;;;;;;;12.85;3.15;;;21.80;99.90;;;;;;5055098;28;20059;-28
2022/08/03 06:24:29;;;;;;;18.33;3.75;;;21.70;99.90;;;;;;5054154;28;20490;-28
2022/08/03 06:26:55;;;;;;;14.68;4.68;;;21.70;99.90;;;;;;5052035;28;20041;-28
2022/08/03 06:29:21;;;;;;;14.80;3.80;;;21.70;99.90;;;;;;5054164;28;20044;-28
2022/08/03 06:31:46;;;;;;;10.10;2.55;;;21.50;99.90;;;;;;5053455;28;20049;-28
2022/08/03 06:34:12;;;;;;;12.48;2.80;;;21.50;1.00;;;;;;5052587;28;20045;-28
2022/08/03 06:36:38;;;;;;;9.85;2.70;;;21.40;1.00;;;;;;5052173;28;20124;-28
2022/08/03 06:39:04;;;;;;;13.15;3.92;;;21.30;1.00;;;;;;5053356;28;20045;-27
2022/08/03 06:41:30;;;;;;;14.65;3.92;;;21.10;99.50;;;;;;5053362;28;20097;-28
2022/08/03 06:43:55;;;;;;;12.43;3.30;;;21.10;99.90;;;;;;5053476;28;20560;-29
2022/08/03 06:46:21;;;;;;;11.77;2.88;;;21.00;99.90;;;;;;5052060;28;20040;-28
2022/08/03 06:48:47;;;;;;;11.30;3.08;;;21.10;1.00;;;;;;5052950;28;20597;-29
2022/08/03 06:51:13;;;;;;;10.70;3.15;;;21.00;99.90;;;;;;5054269;28;20045;-28
2022/08/03 06:53:39;;;;;;;8.60;3.00;;;21.00;1.00;;;;;;5052350;28;20090;-28
2022/08/03 06:56:05;;;;;;;11.43;2.58;;;21.00;1.00;;;;;;5053032;28;20122;-28
2022/08/03 06:58:31;;;;;;;9.50;2.47;;;21.00;1.00;;;;;;5051991;28;20051;-28
2022/08/03 07:00:57;;;;;;;9.77;3.47;;;20.90;99.90;;;;;;5052652;28;20160;-27
2022/08/03 07:03:23;;;;;;;11.82;3.05;;;20.90;1.00;;;;;;5054096;28;20052;-27
2022/08/03 07:05:50;;;;;;;12.20;2.70;;;21.00;1.00;;;;;;5054051;28;20367;-28
2022/08/03 07:08:16;;;;;;;9.23;2.63;;;21.10;1.00;;;;;;5052795;28;20036;-28
2022/08/03 07:10:45;;;;;;;15.05;3.53;;;21.10;1.00;;;;;;5053004;28;20045;-28
2022/08/03 07:13:12;;;;;;;11.98;3.63;;;21.20;1.00;;;;;;5031666;28;20053;-28
2022/08/03 07:15:39;;;;;;;11.90;3.55;;;21.20;1.00;;;;;;5028329;28;20412;-27
2022/08/03 07:18:05;;;;;;;12.80;4.38;;;21.20;99.90;;;;;;5020300;28;20041;-27
2022/08/03 07:20:31;;;;;;;13.05;3.60;;;21.30;99.90;;;;;;5035187;28;20051;-28
2022/08/03 07:22:57;;;;;;;10.38;3.08;;;21.30;99.90;;;;;;5033332;28;20406;-28
2022/08/03 07:25:23;;;;;;;11.95;3.58;;;21.40;99.90;;;;;;5032590;28;20057;-28
2022/08/03 07:27:49;;;;;;;12.05;3.50;;;21.50;99.90;;;;;;5033711;28;20046;-27
2022/08/03 07:30:14;;;;;;;14.07;3.15;;;21.60;99.90;;;;;;5033433;28;20098;-28
2022/08/03 07:32:41;;;;;;;10.63;3.63;;;21.60;99.90;;;;;;5033327;28;20045;-27
2022/08/03 07:35:07;;;;;;;12.50;3.13;;;21.60;99.90;;;;;;5034280;28;20135;-28
2022/08/03 07:37:33;;;;;;;15.52;4.72;;;21.70;99.90;;;;;;5033689;28;20045;-28
2022/08/03 07:40:00;;;;;;;9.00;2.90;;;21.90;99.90;;;;;;5032510;28;20099;-28
2022/08/03 07:42:29;;;;;;;16.98;3.33;;;22.00;99.90;;;;;;5033659;28;20049;-28
2022/08/03 07:44:55;;;;;;;14.52;3.35;;;22.00;77.90;;;;;;5033629;28;20077;-28
2022/08/03 07:47:23;;;;;;;17.52;4.50;;;22.00;2.50;;;;;;5032606;28;20448;-28
2022/08/03 07:49:49;;;;;;;15.85;4.65;;;22.10;78.20;;;;;;5013822;28;20086;-28
2022/08/03 07:54:59;;;;;;;9.35;3.03;;;22.40;99.90;;;;;;5014329;28;20049;-28
2022/08/03 07:57:25;;;;;;;11.13;3.20;;;22.60;43.00;;;;;;5012587;28;20041;-28
2022/08/03 07:59:50;;;;;;;11.75;3.40;;;22.70;1.00;;;;;;5021566;28;20046;-28
2022/08/03 08:02:16;;;;;;;9.40;3.17;;;22.80;1.00;;;;;;5033483;28;20042;-28
2022/08/03 08:04:42;;;;;;;12.80;3.42;;;22.70;99.90;;;;;;5032353;28;20077;-28
2022/08/03 08:07:08;;;;;;;9.20;2.67;;;22.90;1.00;;;;;;5032209;28;20050;-28
2022/08/03 08:09:33;;;;;;;11.70;2.97;;;23.00;1.00;;;;;;5032440;28;20045;-27
2022/08/03 08:11:59;;;;;;;8.90;2.85;;;23.00;99.90;;;;;;5043012;28;20068;-27
2022/08/03 08:14:25;;;;;;;12.07;3.80;;;23.00;99.90;;;;;;5053273;28;20053;-28
2022/08/03 08:16:51;;;;;;;11.32;3.00;;;23.00;99.90;;;;;;5050249;28;21402;-28
2022/08/03 08:19:17;;;;;;;13.07;3.42;;;23.10;99.90;;;;;;5053304;28;20045;-28
2022/08/03 08:21:43;;;;;;;14.45;5.03;;;23.20;99.90;;;;;;5035302;28;20479;-28
2022/08/03 08:24:09;;;;;;;9.50;3.55;;;23.30;99.90;;;;;;5053163;28;20049;-28
2022/08/03 08:26:35;;;;;;;12.43;4.13;;;23.40;99.90;;;;;;5053603;28;20045;-27
2022/08/03 08:29:01;;;;;;;11.88;3.42;;;23.50;99.90;;;;;;5053848;28;20049;-27
2022/08/03 08:31:27;;;;;;;10.73;3.58;;;23.40;1.00;;;;;;5051005;28;20140;-29
2022/08/03 08:33:53;;;;;;;11.38;4.03;;;23.20;1.00;;;;;;5052205;28;20059;-28
2022/08/03 08:36:19;;;;;;;12.48;4.13;;;23.30;99.90;;;;;;5055048;28;20044;-28
2022/08/03 08:38:44;;;;;;;10.85;3.97;;;23.50;99.90;;;;;;5056660;28;20044;-28
2022/08/03 08:41:11;;;;;;;12.10;4.20;;;23.60;26.60;;;;;;5054591;28;20368;-28
2022/08/03 08:43:37;;;;;;;16.52;4.82;;;23.60;21.80;;;;;;5056704;28;20045;-28
2022/08/03 08:46:06;;;;;;;11.25;4.25;;;23.70;39.80;;;;;;5054317;28;20047;-28
2022/08/03 08:48:34;;;;;;;12.98;4.13;;;23.80;1.00;;;;;;5055933;28;20128;-28
2022/08/03 08:51:02;;;;;;;14.02;4.93;;;23.50;1.00;;;;;;5055750;28;20498;-28
2022/08/03 08:53:29;;;;;;;11.75;4.22;;;23.60;1.00;;;;;;5056491;28;20528;-27
2022/08/03 08:56:00;;;;;;;10.07;4.43;;;23.70;1.00;;;;;;5055514;28;20049;-28
2022/08/03 08:58:36;;;;;;;9.10;4.03;;;23.80;1.00;;;;;;5057069;28;20478;-28
2022/08/03 09:01:02;;;;;;;9.82;4.18;;;24.00;1.00;;;;;;5055498;28;20049;-27
2022/08/03 09:03:28;;;;;;;17.77;4.93;;;24.00;1.00;;;;;;5056247;28;20049;-28
2022/08/03 09:05:54;;;;;;;12.85;3.85;;;24.10;1.00;;;;;;5056504;28;20055;-28
2022/08/03 09:08:22;;;;;;;19.38;4.40;;;24.30;1.00;;;;;;5055010;28;20041;-28
2022/08/03 09:10:47;;;;;;;10.18;3.17;;;24.70;99.90;;;;;;5054950;28;20064;-28
2022/08/03 09:13:13;;;;;;;9.57;3.65;;;25.50;99.90;;;;;;5050689;28;20511;-28
2022/08/03 09:15:41;;;;;;;9.75;3.25;;;26.10;1.00;;;;;;5047598;28;20502;-28
2022/08/03 09:18:08;;;;;;;10.73;4.53;;;26.40;99.90;;;;;;5054906;28;20049;-28
2022/08/03 09:20:35;;;;;;;7.95;3.47;;;26.60;99.90;;;;;;5056319;28;20395;-28
2022/08/03 09:23:07;;;;;;;10.07;3.83;;;26.40;99.90;;;;;;5050496;28;20120;-28
2022/08/03 09:25:39;;;;;;;14.65;4.38;;;26.40;99.90;;;;;;5047746;28;20049;-28
2022/08/03 09:28:09;;;;;;;11.43;4.22;;;26.50;99.90;;;;;;5055367;28;20483;-28
2022/08/03 09:30:37;;;;;;;16.83;5.32;;;26.20;99.90;;;;;;5054668;28;20067;-27
2022/08/03 09:33:05;;;;;;;11.48;4.78;;;26.30;1.00;;;;;;5052955;28;20074;-28
2022/08/03 09:35:32;;;;;;;12.95;5.05;;;26.50;99.90;;;;;;5055724;28;20049;-28
2022/08/03 09:38:15;;;;;;;10.88;4.63;;;26.70;99.90;;;;;;5055666;28;20098;-29
2022/08/03 09:40:41;;;;;;;16.30;5.75;;;26.30;99.90;;;;;;5055650;28;20071;-28
2022/08/03 09:43:08;;;;;;;11.18;4.15;;;26.30;99.90;;;;;;5053329;28;20049;-28
2022/08/03 09:45:35;;;;;;;15.85;4.40;;;26.50;99.90;;;;;;5055547;28;20049;-27
2022/08/03 09:48:21;;;;;;;11.45;4.75;;;26.80;99.90;;;;;;5054133;28;20094;-27
2022/08/03 09:51:06;;;;;;;13.50;5.15;;;26.50;99.90;;;;;;5055994;28;20048;-28
2022/08/03 09:53:44;;;;;;;16.45;5.13;;;26.40;99.90;;;;;;5053840;28;20049;-28
2022/08/03 09:56:10;;;;;;;13.65;5.35;;;26.70;99.90;;;;;;5055378;28;20045;-28
2022/08/03 09:58:45;;;;;;;12.63;4.72;;;27.20;99.90;;;;;;5055282;28;20040;-29
2022/08/03 10:01:11;;;;;;;18.17;5.22;;;27.60;67.90;;;;;;5054870;28;20421;-28
2022/08/03 10:03:39;;;;;;;14.88;4.80;;;27.60;16.30;;;;;;5053864;28;20075;-28
2022/08/03 10:06:18;;;;;;;12.82;4.90;;;27.80;1.00;;;;;;5055123;28;20127;-27
2022/08/03 10:09:10;;;;;;;12.55;5.10;;;28.20;99.90;;;;;;5054738;28;20045;-28
2022/08/03 10:11:38;;;;;;;14.88;5.05;;;28.20;99.90;;;;;;5054979;28;20140;-28
2022/08/03 10:14:05;;;;;;;15.93;5.43;;;27.80;99.90;;;;;;5053815;28;20132;-28
2022/08/03 10:16:39;;;;;;;15.23;5.03;;;27.80;1.00;;;;;;5054937;28;20082;-28
2022/08/03 10:19:06;;;;;;;11.27;5.25;;;28.40;1.00;;;;;;5054941;28;20145;-28
2022/08/03 10:21:37;;;;;;;15.40;5.40;;;28.30;99.90;;;;;;5054809;28;20045;-28
2022/08/03 10:24:07;;;;;;;10.52;4.00;;;28.20;99.90;;;;;;5052493;28;20502;-28
2022/08/03 10:26:34;;;;;;;13.30;4.35;;;27.70;99.90;;;;;;5055530;28;20048;-28
2022/08/03 10:29:04;;;;;;;15.82;5.10;;;27.90;99.90;;;;;;5054584;28;20083;-28
2022/08/03 10:31:43;;;;;;;13.00;5.20;;;27.70;99.90;;;;;;5053441;28;20045;-28
2022/08/03 10:34:22;;;;;;;12.02;4.25;;;27.70;99.90;;;;;;5054202;28;20053;-29
2022/08/03 10:36:52;;;;;;;11.77;3.80;;;28.10;99.90;;;;;;5050326;28;20418;-28
2022/08/03 10:39:20;;;;;;;10.93;4.45;;;28.10;99.90;;;;;;5035390;28;20103;-28
2022/08/03 10:41:47;;;;;;;11.00;3.75;;;28.30;99.90;;;;;;5035091;28;20056;-28
2022/08/03 10:44:24;;;;;;;13.32;4.57;;;28.60;99.90;;;;;;5033312;28;20128;-29
2022/08/03 10:46:50;;;;;;;17.08;4.53;;;28.70;13.10;;;;;;5051043;28;20044;-28
2022/08/03 10:49:18;;;;;;;12.88;4.45;;;28.50;99.90;;;;;;5054857;28;20045;-27
2022/08/03 10:51:45;;;;;;;12.27;5.13;;;28.30;37.10;;;;;;5052838;28;20041;-28
2022/08/03 10:57:47;;;;;;;14.40;5.45;;;28.40;99.90;;;;;;5036423;28;20125;-28
2022/08/03 11:00:18;;;;;;;15.95;5.63;;;28.20;94.30;;;;;;5035048;28;20053;-28
2022/08/03 11:03:05;;;;;;;17.58;5.38;;;28.20;99.90;;;;;;5034806;28;20076;-28
2022/08/03 11:05:36;;;;;;;22.70;6.13;;;28.20;1.00;;;;;;5034626;28;20388;-28
2022/08/03 11:08:24;;;;;;;14.05;5.75;;;28.30;1.00;;;;;;5036394;28;20053;-28
2022/08/03 11:10:52;;;;;;;15.80;6.13;;;28.40;20.10;;;;;;5033844;28;20106;-28
2022/08/03 11:13:20;;;;;;;16.65;7.75;;;28.20;99.90;;;;;;5034624;28;20053;-28
2022/08/03 11:15:48;;;;;;;20.00;7.20;;;27.90;18.90;;;;;;5033982;28;20146;-28
2022/08/03 11:18:15;;;;;;;19.58;6.95;;;28.00;99.90;;;;;;5033008;28;20183;-28
2022/08/03 11:20:45;;;;;;;17.25;6.72;;;28.20;1.00;;;;;;5051517;28;20045;-28
2022/08/03 11:23:11;;;;;;;14.85;6.93;;;28.00;1.00;;;;;;5054341;28;20045;-28
2022/08/03 11:26:08;;;;;;;21.45;7.63;;;27.90;41.30;;;;;;5053734;28;20049;-28
2022/08/03 11:28:34;;;;;;;17.65;6.82;;;28.00;99.90;;;;;;5052350;28;20045;-28
2022/08/03 11:31:22;;;;;;;17.50;6.45;;;28.10;99.90;;;;;;5051868;28;20048;-28
2022/08/03 11:34:08;;;;;;;16.60;7.07;;;28.00;1.00;;;;;;5053680;28;20049;-28
2022/08/03 11:37:11;;;;;;;24.02;7.68;;;28.00;16.40;;;;;;5054158;28;20052;-27
2022/08/03 11:39:45;;;;;;;20.30;6.38;;;27.90;1.00;;;;;;5052611;28;20103;-28
2022/08/03 11:42:23;;;;;;;19.65;6.95;;;28.00;99.90;;;;;;5053564;28;20049;-28
2022/08/03 11:44:50;;;;;;;20.50;7.47;;;28.20;99.90;;;;;;5053555;28;20093;-28
2022/08/03 11:47:16;;;;;;;20.52;6.65;;;28.30;99.90;;;;;;5053434;28;20479;-28
2022/08/03 11:49:50;;;;;;;16.73;5.80;;;28.80;28.30;;;;;;5053493;28;20132;-28
2022/08/03 11:52:18;;;;;;;18.48;5.90;;;28.80;1.00;;;;;;5052826;28;20457;-28
2022/08/03 11:54:44;;;;;;;16.40;5.22;;;28.60;99.90;;;;;;5053762;28;20045;-28
2022/08/03 11:57:10;;;;;;;18.35;6.57;;;28.50;1.00;;;;;;5053455;28;20084;-28
2022/08/03 11:59:37;;;;;;;19.17;6.45;;;28.20;1.00;;;;;;5053398;28;20089;-28
2022/08/03 12:02:12;;;;;;;21.50;6.45;;;27.90;26.60;;;;;;5052263;28;20052;-29
2022/08/03 12:05:01;;;;;;;23.58;7.38;;;27.70;11.40;;;;;;5053394;28;20095;-28
2022/08/03 12:07:29;;;;;;;22.15;7.45;;;27.90;1.00;;;;;;5053627;28;20080;-28
2022/08/03 12:10:25;;;;;;;16.55;5.45;;;28.30;99.90;;;;;;5054057;28;20552;-28
2022/08/03 12:12:58;;;;;;;15.57;5.78;;;27.90;1.00;;;;;;5051495;28;20410;-28
2022/08/03 12:15:32;;;;;;;16.63;5.65;;;28.10;99.90;;;;;;5057224;28;20103;-28
2022/08/03 12:17:58;;;;;;;17.40;6.72;;;28.20;99.90;;;;;;5058097;28;20112;-28
2022/08/03 12:20:30;;;;;;;19.20;6.20;;;28.00;74.00;;;;;;5057135;28;20050;-29
2022/08/03 12:23:05;;;;;;;20.50;6.55;;;28.20;99.90;;;;;;5054880;28;20041;-29
2022/08/03 12:25:33;;;;;;;19.92;6.13;;;28.50;99.90;;;;;;5057669;28;20120;-28
2022/08/03 12:28:17;;;;;;;18.60;7.28;;;28.70;68.90;;;;;;5057421;28;20132;-28
2022/08/03 12:30:50;;;;;;;19.25;6.32;;;28.50;1.00;;;;;;5056906;28;20494;-28
2022/08/03 12:33:24;;;;;;;17.55;4.43;;;28.30;30.00;;;;;;5055537;28;20403;-28
2022/08/03 12:36:10;;;;;;;12.70;4.18;;;28.10;1.00;;;;;;5051603;28;20045;-28
2022/08/03 12:38:37;;;;;;;16.52;4.65;;;27.90;1.00;;;;;;5054912;28;20049;-27
2022/08/03 12:41:07;;;;;;;21.65;5.38;;;27.90;1.00;;;;;;5064443;28;20074;-26
2022/08/03 12:43:34;;;;;;;17.63;4.78;;;28.20;1.00;;;;;;5059370;28;20045;-26
2022/08/03 12:46:14;;;;;;;23.70;5.70;;;28.00;1.00;;;;;;5056550;28;20090;-27
2022/08/03 12:49:06;;;;;;;16.08;5.30;;;28.20;1.00;;;;;;5044029;28;20049;-27
2022/08/03 12:51:55;;;;;;;23.13;5.60;;;28.50;1.00;;;;;;5050785;28;20124;-27
2022/08/03 12:54:24;;;;;;;15.98;5.65;;;28.40;99.90;;;;;;5041444;28;20041;-27
2022/08/03 12:57:00;;;;;;;17.67;4.85;;;27.80;99.90;;;;;;5050359;28;20048;-27
2022/08/03 12:59:37;;;;;;;12.82;3.85;;;27.70;99.90;;;;;;5047407;28;20059;-27
2022/08/03 13:02:04;;;;;;;16.27;4.93;;;27.90;99.90;;;;;;5052918;28;20049;-27
2022/08/03 13:04:32;;;;;;;12.95;4.07;;;28.10;99.90;;;;;;5056102;28;20132;-27